Hlavní strana
METAR-TAF:

METAR-TAF

Letiště :

Kuusamo, Finsko

zeměpisná šířka: 65-58N, zeměpisná délka: 029-11E, výška: 262 m

Aktuální stav počasí

Zpráva byla vytvořena před 11 minutami, v 02:20 UTC
Jihojihovýchodní vítr 9 kt, proměnlivý mezi jihovýchodním a jižním
Teplota -2°C
Vlhkost vzduchu 93%
Tlak 1013 hPa
Viditelnost 10 km a více
Zataženo ve výšce 700 ft

METAR: EFKS 180220Z AUTO 16009KT 130V190 9999 OVC007 M02/M03 Q1013

Čas: 05:31 (02:31 UTC)

Předpověď počasí

Zpráva byla vytvořena před 14 hodinami a 54 minutami, v 11:37 UTC
Předpověď platná od 17 v 12 UTC do 17 v 14 UTC
Jihovýchodní vítr 5 kt
Viditelnost 10 km a více
Oblačno až skoro zataženo ve výšce 1600 ft

TAF: EFKS 171137Z 1712/1714 13005KT 9999 BKN016

Stav a předpovědi počasí z více než 4 000 letišť (zprávy METAR a TAF).

Červené a žluté tečky na mapě představují dostupné meteorologické stanice.

Když kurzor umístíte na tečku, zobrazí se název stanice.

Pak kliknutím zobrazíte stav a předpověď počasí.

Chcete-li změnit mapu, kliknutím na zelené tlačítko se znaménkem +mapu přiblížíte, kliknutím na zelené tlačítko se znaménkem – mapu oddálíte a kliknutím na zelené šipky přejdete na sousední mapy.


METAR-TAF: